PWSweather.com
Personal Weather Stations
Station Observations
KMILAPEE3
Lapeer Michigan, Lapeer, MI 48446

Lapeer MichiganLapeer, MI 48446

Lat: 43.057, Lon: -83.362

Elevation: 897

Station Type: Oregon Scientific WMR-968

Latest ConditionsUpdated 11:25:25 AM EST Saturday, Nov 22, 2014
Currently Today's Max Today's Min Today's Average
Temperature 37.4°F3.0°C 37.4°F3.0°C 21.2°F-6.0°C 28.9°F-1.7°C
Dew Point 34.1°F1.2°C 34.1°F1.2°C 6.4°F-14.2°C 15.8°F-9.0°C
Winds 10.1 mph SW16.3 kmh SW 13.6 mph SW21.9 kmh SW - 8.6 mph 13.8 kmh
Wind Gusts 21.9 mph35.2 kmh 25.8 mph41.5 kmh - -
Humidity 88% 89% 48% 59%
Pressure 32.01 in1084.0 mb 32.01 in1084.0 mb 32.01 in1084.0 mb -
Precipitation - 0.04 in1.0 mm - -
Hour Temp Dew Point Humidity Winds Wind Gusts Pressure Precip Precip Rate Daily Precip Total
11:25 AM 37.4°F3.0°C 34.1°F1.2°C 88% 10.1 mph SW16.3 kmh SW 21.9 mph35.2 kmh 32.01 in1084.0 mb 0.04 in1.0 mm 0.48 in/hr12.2 mm/hr 0.04 in1.0 mm
11:20 AM 37.0°F2.8°C 33.7°F0.9°C 88% 12.6 mph SW20.3 kmh SW 21.9 mph35.2 kmh 32.01 in1084.0 mb 0.00 in0.0 mm 0.00 in/hr0.0 mm/hr 0.00 in0.0 mm
11:15 AM 37.0°F2.8°C 33.7°F0.9°C 88% 12.6 mph SW20.3 kmh SW 20.6 mph33.2 kmh 32.01 in1084.0 mb 0.00 in0.0 mm 0.00 in/hr0.0 mm/hr 0.00 in0.0 mm
11:10 AM 37.0°F2.8°C 33.7°F0.9°C 88% 13.6 mph SW21.9 kmh SW 20.6 mph33.2 kmh 32.01 in1084.0 mb 0.00 in0.0 mm 0.00 in/hr0.0 mm/hr 0.00 in0.0 mm
11:05 AM 37.0°F2.8°C 33.7°F0.9°C 88% 13.5 mph SW21.7 kmh SW 20.6 mph33.2 kmh 32.01 in1084.0 mb 0.00 in0.0 mm 0.00 in/hr0.0 mm/hr 0.00 in0.0 mm
11:00 AM 37.0°F2.8°C 34.0°F1.1°C 89% 10.7 mph SW17.2 kmh SW 20.6 mph33.2 kmh 32.01 in1084.0 mb 0.00 in0.0 mm 0.00 in/hr0.0 mm/hr 0.00 in0.0 mm
10:54 AM 37.0°F2.8°C 34.0°F1.1°C 89% 11.8 mph SW19.0 kmh SW 17.6 mph28.3 kmh 32.01 in1084.0 mb 0.00 in0.0 mm 0.00 in/hr0.0 mm/hr 0.00 in0.0 mm
10:49 AM 36.9°F2.7°C 33.6°F0.9°C 88% 9.3 mph SW15.0 kmh SW 18.1 mph29.1 kmh 32.01 in1084.0 mb 0.00 in0.0 mm 0.00 in/hr0.0 mm/hr 0.00 in0.0 mm
10:44 AM 36.5°F2.5°C 33.2°F0.7°C 88% 10.8 mph SW17.4 kmh SW 18.7 mph30.1 kmh 32.01 in1084.0 mb 0.00 in0.0 mm 0.00 in/hr0.0 mm/hr 0.00 in0.0 mm
10:39 AM 36.0°F2.2°C 32.7°F0.4°C 88% 11.1 mph SW17.9 kmh SW 23.4 mph37.7 kmh 32.01 in1084.0 mb 0.00 in0.0 mm 0.00 in/hr0.0 mm/hr 0.00 in0.0 mm
10:34 AM 35.8°F2.1°C 32.2°F0.1°C 87% 12.1 mph SW19.5 kmh SW 23.4 mph37.7 kmh 32.01 in1084.0 mb 0.00 in0.0 mm 0.00 in/hr0.0 mm/hr 0.00 in0.0 mm
10:29 AM 35.4°F1.9°C 31.8°F-0.1°C 87% 10.5 mph SW16.9 kmh SW 21.2 mph34.1 kmh 32.01 in1084.0 mb 0.00 in0.0 mm 0.00 in/hr0.0 mm/hr 0.00 in0.0 mm
10:23 AM 35.4°F1.9°C 31.8°F-0.1°C 87% 12.1 mph SW19.5 kmh SW 25.2 mph40.6 kmh 32.01 in1084.0 mb 0.00 in0.0 mm 0.00 in/hr0.0 mm/hr 0.00 in0.0 mm
10:18 AM 35.1°F1.7°C 31.2°F-0.4°C 86% 11.7 mph SW18.8 kmh SW 25.2 mph40.6 kmh 32.01 in1084.0 mb 0.00 in0.0 mm 0.00 in/hr0.0 mm/hr 0.00 in0.0 mm
10:13 AM 35.1°F1.7°C 30.8°F-0.7°C 84% 9.8 mph SW15.8 kmh SW 15.7 mph25.3 kmh 32.01 in1084.0 mb 0.00 in0.0 mm 0.00 in/hr0.0 mm/hr 0.00 in0.0 mm
10:08 AM 35.1°F1.7°C 30.8°F-0.7°C 84% 7.3 mph SW11.7 kmh SW 17.6 mph28.3 kmh 32.01 in1084.0 mb 0.00 in0.0 mm 0.00 in/hr0.0 mm/hr 0.00 in0.0 mm
10:03 AM 34.9°F1.6°C 30.3°F-0.9°C 83% 11.5 mph SW18.5 kmh SW 19.4 mph31.2 kmh 32.01 in1084.0 mb 0.00 in0.0 mm 0.00 in/hr0.0 mm/hr 0.00 in0.0 mm
09:58 AM 34.7°F1.5°C 29.7°F-1.3°C 82% 8.6 mph SW13.8 kmh SW 19.4 mph31.2 kmh 32.01 in1084.0 mb 0.00 in0.0 mm 0.00 in/hr0.0 mm/hr 0.00 in0.0 mm
09:53 AM 34.5°F1.4°C 28.9°F-1.7°C 80% 7.8 mph SW12.6 kmh SW 18.1 mph29.1 kmh 32.01 in1084.0 mb 0.00 in0.0 mm 0.00 in/hr0.0 mm/hr 0.00 in0.0 mm
09:48 AM 34.3°F1.3°C 28.7°F-1.8°C 80% 10.8 mph SW17.4 kmh SW 18.1 mph29.1 kmh 32.01 in1084.0 mb 0.00 in0.0 mm 0.00 in/hr0.0 mm/hr 0.00 in0.0 mm
09:43 AM 34.3°F1.3°C 28.3°F-2.1°C 78% 10.8 mph SW17.4 kmh SW 17.6 mph28.3 kmh 32.01 in1084.0 mb 0.00 in0.0 mm 0.00 in/hr0.0 mm/hr 0.00 in0.0 mm
09:38 AM 34.0°F1.1°C 28.0°F-2.2°C 78% 10.5 mph SW16.9 kmh SW 17.6 mph28.3 kmh 32.01 in1084.0 mb 0.00 in0.0 mm 0.00 in/hr0.0 mm/hr 0.00 in0.0 mm
09:33 AM 33.6°F0.9°C 27.2°F-2.7°C 77% 9.5 mph SW15.3 kmh SW 16.9 mph27.2 kmh 32.01 in1084.0 mb 0.00 in0.0 mm 0.00 in/hr0.0 mm/hr 0.00 in0.0 mm
09:28 AM 33.6°F0.9°C 26.9°F-2.8°C 76% 10.5 mph SW16.9 kmh SW 16.9 mph27.2 kmh 32.01 in1084.0 mb 0.00 in0.0 mm 0.00 in/hr0.0 mm/hr 0.00 in0.0 mm
09:23 AM 33.3°F0.7°C 26.2°F-3.2°C 75% 10.9 mph SW17.5 kmh SW 18.1 mph29.1 kmh 32.01 in1084.0 mb 0.00 in0.0 mm 0.00 in/hr0.0 mm/hr 0.00 in0.0 mm
09:18 AM 33.3°F0.7°C 25.8°F-3.4°C 74% 11.2 mph SSW18.0 kmh SSW 18.1 mph29.1 kmh 32.01 in1084.0 mb 0.00 in0.0 mm 0.00 in/hr0.0 mm/hr 0.00 in0.0 mm
09:13 AM 33.3°F0.7°C 25.0°F-3.9°C 71% 9.3 mph SW15.0 kmh SW 17.6 mph28.3 kmh 32.01 in1084.0 mb 0.00 in0.0 mm 0.00 in/hr0.0 mm/hr 0.00 in0.0 mm
09:08 AM 33.3°F0.7°C 25.0°F-3.9°C 71% 8.1 mph SW13.0 kmh SW 18.1 mph29.1 kmh 32.01 in1084.0 mb 0.00 in0.0 mm 0.00 in/hr0.0 mm/hr 0.00 in0.0 mm
09:03 AM 33.3°F0.7°C 24.6°F-4.1°C 70% 13.6 mph SW21.9 kmh SW 18.1 mph29.1 kmh 32.01 in1084.0 mb 0.00 in0.0 mm 0.00 in/hr0.0 mm/hr 0.00 in0.0 mm
08:58 AM 33.3°F0.7°C 24.2°F-4.3°C 69% 10.7 mph SW17.2 kmh SW 20.6 mph33.2 kmh 32.01 in1084.0 mb 0.00 in0.0 mm 0.00 in/hr0.0 mm/hr 0.00 in0.0 mm
08:52 AM 33.3°F0.7°C 24.2°F-4.3°C 69% 11.9 mph SSW19.2 kmh SSW 23.4 mph37.7 kmh 32.01 in1084.0 mb 0.00 in0.0 mm 0.00 in/hr0.0 mm/hr 0.00 in0.0 mm
08:47 AM 33.1°F0.6°C 23.6°F-4.7°C 68% 9.4 mph SW15.1 kmh SW 25.8 mph41.5 kmh 32.01 in1084.0 mb 0.00 in0.0 mm 0.00 in/hr0.0 mm/hr 0.00 in0.0 mm
08:42 AM 33.1°F0.6°C 23.2°F-4.9°C 66% 13.4 mph SW21.6 kmh SW 25.8 mph41.5 kmh 32.01 in1084.0 mb 0.00 in0.0 mm 0.00 in/hr0.0 mm/hr 0.00 in0.0 mm
08:37 AM 33.1°F0.6°C 23.2°F-4.9°C 66% 11.6 mph SW18.7 kmh SW 21.9 mph35.2 kmh 32.01 in1084.0 mb 0.00 in0.0 mm 0.00 in/hr0.0 mm/hr 0.00 in0.0 mm
08:31 AM 33.1°F0.6°C 22.3°F-5.4°C 64% 13.4 mph SW21.6 kmh SW 21.9 mph35.2 kmh 32.01 in1084.0 mb 0.00 in0.0 mm 0.00 in/hr0.0 mm/hr 0.00 in0.0 mm
08:25 AM 33.1°F0.6°C 21.9°F-5.6°C 63% 9.4 mph SW15.1 kmh SW 16.9 mph27.2 kmh 32.01 in1084.0 mb 0.00 in0.0 mm 0.00 in/hr0.0 mm/hr 0.00 in0.0 mm
08:21 AM 33.1°F0.6°C 21.9°F-5.6°C 63% 10.6 mph SW17.1 kmh SW 18.1 mph29.1 kmh 32.01 in1084.0 mb 0.00 in0.0 mm 0.00 in/hr0.0 mm/hr 0.00 in0.0 mm
08:16 AM 33.1°F0.6°C 21.4°F-5.9°C 62% 10.3 mph SW16.6 kmh SW 20.6 mph33.2 kmh 32.01 in1084.0 mb 0.00 in0.0 mm 0.00 in/hr0.0 mm/hr 0.00 in0.0 mm
08:11 AM 33.3°F0.7°C 21.6°F-5.8°C 62% 11.6 mph SW18.7 kmh SW 20.6 mph33.2 kmh 32.01 in1084.0 mb 0.00 in0.0 mm 0.00 in/hr0.0 mm/hr 0.00 in0.0 mm
08:05 AM 33.3°F0.7°C 21.1°F-6.1°C 60% 9.6 mph SW15.4 kmh SW 17.6 mph28.3 kmh 32.01 in1084.0 mb 0.00 in0.0 mm 0.00 in/hr0.0 mm/hr 0.00 in0.0 mm
08:01 AM 33.3°F0.7°C 20.6°F-6.3°C 59% 10.8 mph SSW17.4 kmh SSW 17.6 mph28.3 kmh 32.01 in1084.0 mb 0.00 in0.0 mm 0.00 in/hr0.0 mm/hr 0.00 in0.0 mm
07:55 AM 33.3°F0.7°C 20.1°F-6.6°C 58% 11.5 mph SW18.5 kmh SW 18.1 mph29.1 kmh 32.01 in1084.0 mb 0.00 in0.0 mm 0.00 in/hr0.0 mm/hr 0.00 in0.0 mm
07:50 AM 33.3°F0.7°C 19.6°F-6.9°C 57% 9.2 mph SSW14.8 kmh SSW 23.4 mph37.7 kmh 32.01 in1084.0 mb 0.00 in0.0 mm 0.00 in/hr0.0 mm/hr 0.00 in0.0 mm
07:46 AM 33.3°F0.7°C 19.6°F-6.9°C 57% 13.4 mph SW21.6 kmh SW 23.4 mph37.7 kmh 32.01 in1084.0 mb 0.00 in0.0 mm 0.00 in/hr0.0 mm/hr 0.00 in0.0 mm
07:40 AM 33.3°F0.7°C 19.1°F-7.2°C 56% 11.7 mph SSW18.8 kmh SSW 18.1 mph29.1 kmh 32.01 in1084.0 mb 0.00 in0.0 mm 0.00 in/hr0.0 mm/hr 0.00 in0.0 mm
07:36 AM 33.1°F0.6°C 18.9°F-7.3°C 56% 8.8 mph SW14.2 kmh SW 18.1 mph29.1 kmh 32.01 in1084.0 mb 0.00 in0.0 mm 0.00 in/hr0.0 mm/hr 0.00 in0.0 mm
07:29 AM 33.1°F0.6°C 18.4°F-7.6°C 54% 10.7 mph SW17.2 kmh SW 18.1 mph29.1 kmh 32.01 in1084.0 mb 0.00 in0.0 mm 0.00 in/hr0.0 mm/hr 0.00 in0.0 mm
07:24 AM 32.7°F0.4°C 17.5°F-8.1°C 53% 10.2 mph SW16.4 kmh SW 18.1 mph29.1 kmh 32.01 in1084.0 mb 0.00 in0.0 mm 0.00 in/hr0.0 mm/hr 0.00 in0.0 mm
07:19 AM 32.4°F0.2°C 16.1°F-8.8°C 51% 10.2 mph SSW16.4 kmh SSW 17.6 mph28.3 kmh 32.01 in1084.0 mb 0.00 in0.0 mm 0.00 in/hr0.0 mm/hr 0.00 in0.0 mm
07:14 AM 31.6°F-0.2°C 14.8°F-9.6°C 50% 8.5 mph SSW13.7 kmh SSW 16.9 mph27.2 kmh 32.01 in1084.0 mb 0.00 in0.0 mm 0.00 in/hr0.0 mm/hr 0.00 in0.0 mm
07:09 AM 30.9°F-0.6°C 13.6°F-10.2°C 48% 8.4 mph SSW13.5 kmh SSW 12.6 mph20.3 kmh 32.01 in1084.0 mb 0.00 in0.0 mm 0.00 in/hr0.0 mm/hr 0.00 in0.0 mm
07:04 AM 30.6°F-0.8°C 13.3°F-10.4°C 48% 5.9 mph SSW9.5 kmh SSW 12.0 mph19.3 kmh 32.01 in1084.0 mb 0.00 in0.0 mm 0.00 in/hr0.0 mm/hr 0.00 in0.0 mm
06:58 AM 30.6°F-0.8°C 13.3°F-10.4°C 48% 5.9 mph SSW9.5 kmh SSW 12.0 mph19.3 kmh 32.01 in1084.0 mb 0.00 in0.0 mm 0.00 in/hr0.0 mm/hr 0.00 in0.0 mm
06:53 AM 30.4°F-0.9°C 13.1°F-10.5°C 48% 6.4 mph SSW10.3 kmh SSW 12.0 mph19.3 kmh 32.01 in1084.0 mb 0.00 in0.0 mm 0.00 in/hr0.0 mm/hr 0.00 in0.0 mm
06:47 AM 30.4°F-0.9°C 13.1°F-10.5°C 48% 5.5 mph SSW8.9 kmh SSW 12.0 mph19.3 kmh 32.01 in1084.0 mb 0.00 in0.0 mm 0.00 in/hr0.0 mm/hr 0.00 in0.0 mm
06:42 AM 30.4°F-0.9°C 13.1°F-10.5°C 48% 5.6 mph S9.0 kmh S 12.0 mph19.3 kmh 32.01 in1084.0 mb 0.00 in0.0 mm 0.00 in/hr0.0 mm/hr 0.00 in0.0 mm
06:37 AM 30.4°F-0.9°C 13.1°F-10.5°C 48% 6.1 mph SSW9.8 kmh SSW 13.9 mph22.4 kmh 32.01 in1084.0 mb 0.00 in0.0 mm 0.00 in/hr0.0 mm/hr 0.00 in0.0 mm
06:32 AM 30.2°F-1.0°C 12.9°F-10.6°C 48% 7.3 mph S11.7 kmh S 13.9 mph22.4 kmh 32.01 in1084.0 mb 0.00 in0.0 mm 0.00 in/hr0.0 mm/hr 0.00 in0.0 mm
06:26 AM 30.2°F-1.0°C 12.9°F-10.6°C 48% 6.7 mph SSW10.8 kmh SSW 12.0 mph19.3 kmh 32.01 in1084.0 mb 0.00 in0.0 mm 0.00 in/hr0.0 mm/hr 0.00 in0.0 mm
06:21 AM 30.2°F-1.0°C 12.9°F-10.6°C 48% 5.9 mph S9.5 kmh S 11.1 mph17.9 kmh 32.01 in1084.0 mb 0.00 in0.0 mm 0.00 in/hr0.0 mm/hr 0.00 in0.0 mm
06:15 AM 30.2°F-1.0°C 12.9°F-10.6°C 48% 5.9 mph SSW9.5 kmh SSW 12.0 mph19.3 kmh 32.01 in1084.0 mb 0.00 in0.0 mm 0.00 in/hr0.0 mm/hr 0.00 in0.0 mm
06:10 AM 30.2°F-1.0°C 12.9°F-10.6°C 48% 5.9 mph S9.5 kmh S 15.1 mph24.3 kmh 32.01 in1084.0 mb 0.00 in0.0 mm 0.00 in/hr0.0 mm/hr 0.00 in0.0 mm
06:05 AM 30.2°F-1.0°C 12.9°F-10.6°C 48% 8.6 mph S13.8 kmh S 15.1 mph24.3 kmh 32.01 in1084.0 mb 0.00 in0.0 mm 0.00 in/hr0.0 mm/hr 0.00 in0.0 mm
06:00 AM 30.0°F-1.1°C 12.7°F-10.7°C 48% 4.8 mph SSW7.7 kmh SSW 15.1 mph24.3 kmh 32.01 in1084.0 mb 0.00 in0.0 mm 0.00 in/hr0.0 mm/hr 0.00 in0.0 mm
05:54 AM 29.8°F-1.2°C 12.6°F-10.8°C 48% 5.5 mph S8.9 kmh S 11.1 mph17.9 kmh 32.01 in1084.0 mb 0.00 in0.0 mm 0.00 in/hr0.0 mm/hr 0.00 in0.0 mm
05:49 AM 29.7°F-1.3°C 12.5°F-10.8°C 48% 7.6 mph S12.2 kmh S 15.1 mph24.3 kmh 32.01 in1084.0 mb 0.00 in0.0 mm 0.00 in/hr0.0 mm/hr 0.00 in0.0 mm
05:44 AM 29.5°F-1.4°C 12.3°F-10.9°C 48% 6.0 mph S9.7 kmh S 15.1 mph24.3 kmh 32.01 in1084.0 mb 0.00 in0.0 mm 0.00 in/hr0.0 mm/hr 0.00 in0.0 mm
05:38 AM 29.3°F-1.5°C 12.1°F-11.1°C 48% 4.6 mph S7.4 kmh S 11.1 mph17.9 kmh 32.01 in1084.0 mb 0.00 in0.0 mm 0.00 in/hr0.0 mm/hr 0.00 in0.0 mm
05:34 AM 29.1°F-1.6°C 12.0°F-11.1°C 49% 5.4 mph SSW8.7 kmh SSW 11.4 mph18.3 kmh 32.01 in1084.0 mb 0.00 in0.0 mm 0.00 in/hr0.0 mm/hr 0.00 in0.0 mm
05:28 AM 29.1°F-1.6°C 12.0°F-11.1°C 49% 5.6 mph S9.0 kmh S 11.4 mph18.3 kmh 32.01 in1084.0 mb 0.00 in0.0 mm 0.00 in/hr0.0 mm/hr 0.00 in0.0 mm
05:24 AM 28.9°F-1.7°C 11.8°F-11.2°C 49% 5.3 mph SSW8.5 kmh SSW 12.0 mph19.3 kmh 32.01 in1084.0 mb 0.00 in0.0 mm 0.00 in/hr0.0 mm/hr 0.00 in0.0 mm
05:18 AM 28.8°F-1.8°C 11.7°F-11.3°C 49% 7.5 mph S12.1 kmh S 14.4 mph23.2 kmh 32.01 in1084.0 mb 0.00 in0.0 mm 0.00 in/hr0.0 mm/hr 0.00 in0.0 mm
05:14 AM 28.8°F-1.8°C 11.7°F-11.3°C 49% 7.2 mph S11.6 kmh S 14.4 mph23.2 kmh 32.01 in1084.0 mb 0.00 in0.0 mm 0.00 in/hr0.0 mm/hr 0.00 in0.0 mm
05:08 AM 28.6°F-1.9°C 11.6°F-11.3°C 49% 8.2 mph S13.2 kmh S 12.0 mph19.3 kmh 32.01 in1084.0 mb 0.00 in0.0 mm 0.00 in/hr0.0 mm/hr 0.00 in0.0 mm
05:03 AM 28.6°F-1.9°C 11.6°F-11.3°C 49% 4.6 mph SSW7.4 kmh SSW 11.4 mph18.3 kmh 32.01 in1084.0 mb 0.00 in0.0 mm 0.00 in/hr0.0 mm/hr 0.00 in0.0 mm
04:58 AM 28.4°F-2.0°C 11.4°F-11.4°C 49% 6.7 mph SSW10.8 kmh SSW 11.4 mph18.3 kmh 32.01 in1084.0 mb 0.00 in0.0 mm 0.00 in/hr0.0 mm/hr 0.00 in0.0 mm
04:51 AM 28.2°F-2.1°C 11.2°F-11.6°C 49% 5.9 mph SSW9.5 kmh SSW 11.4 mph18.3 kmh 32.01 in1084.0 mb 0.00 in0.0 mm 0.00 in/hr0.0 mm/hr 0.00 in0.0 mm
04:46 AM 28.0°F-2.2°C 11.1°F-11.6°C 49% 7.9 mph SSW12.7 kmh SSW 11.4 mph18.3 kmh 32.01 in1084.0 mb 0.00 in0.0 mm 0.00 in/hr0.0 mm/hr 0.00 in0.0 mm
04:41 AM 27.9°F-2.3°C 11.0°F-11.7°C 49% 5.5 mph S8.9 kmh S 12.0 mph19.3 kmh 32.01 in1084.0 mb 0.00 in0.0 mm 0.00 in/hr0.0 mm/hr 0.00 in0.0 mm
04:36 AM 27.9°F-2.3°C 11.0°F-11.7°C 49% 8.4 mph SW13.5 kmh SW 12.0 mph19.3 kmh 32.01 in1084.0 mb 0.00 in0.0 mm 0.00 in/hr0.0 mm/hr 0.00 in0.0 mm
04:31 AM 27.7°F-2.4°C 10.8°F-11.8°C 49% 6.9 mph SSW11.1 kmh SSW 16.9 mph27.2 kmh 32.01 in1084.0 mb 0.00 in0.0 mm 0.00 in/hr0.0 mm/hr 0.00 in0.0 mm
04:26 AM 27.5°F-2.5°C 10.7°F-11.8°C 49% 8.2 mph SSW13.2 kmh SSW 16.9 mph27.2 kmh 32.01 in1084.0 mb 0.00 in0.0 mm 0.00 in/hr0.0 mm/hr 0.00 in0.0 mm
04:21 AM 27.3°F-2.6°C 10.5°F-11.9°C 49% 6.0 mph S9.7 kmh S 15.1 mph24.3 kmh 32.01 in1084.0 mb 0.00 in0.0 mm 0.00 in/hr0.0 mm/hr 0.00 in0.0 mm
04:16 AM 27.1°F-2.7°C 10.3°F-12.1°C 49% 8.2 mph S13.2 kmh S 18.1 mph29.1 kmh 32.01 in1084.0 mb 0.00 in0.0 mm 0.00 in/hr0.0 mm/hr 0.00 in0.0 mm
04:11 AM 27.0°F-2.8°C 10.2°F-12.1°C 49% 6.5 mph SSW10.5 kmh SSW 18.1 mph29.1 kmh 32.01 in1084.0 mb 0.00 in0.0 mm 0.00 in/hr0.0 mm/hr 0.00 in0.0 mm
04:06 AM 27.0°F-2.8°C 10.2°F-12.1°C 49% 7.7 mph SSW12.4 kmh SSW 15.1 mph24.3 kmh 32.01 in1084.0 mb 0.00 in0.0 mm 0.00 in/hr0.0 mm/hr 0.00 in0.0 mm
04:01 AM 26.8°F-2.9°C 10.1°F-12.2°C 49% 7.8 mph S12.6 kmh S 20.6 mph33.2 kmh 32.01 in1084.0 mb 0.00 in0.0 mm 0.00 in/hr0.0 mm/hr 0.00 in0.0 mm
03:56 AM 26.6°F-3.0°C 10.4°F-12.0°C 50% 7.1 mph SSW11.4 kmh SSW 20.6 mph33.2 kmh 32.01 in1084.0 mb 0.00 in0.0 mm 0.00 in/hr0.0 mm/hr 0.00 in0.0 mm
03:51 AM 26.4°F-3.1°C 10.3°F-12.1°C 50% 8.0 mph SSW12.9 kmh SSW 18.1 mph29.1 kmh 32.01 in1084.0 mb 0.00 in0.0 mm 0.00 in/hr0.0 mm/hr 0.00 in0.0 mm
03:46 AM 26.1°F-3.3°C 10.0°F-12.2°C 50% 8.0 mph S12.9 kmh S 18.1 mph29.1 kmh 32.01 in1084.0 mb 0.00 in0.0 mm 0.00 in/hr0.0 mm/hr 0.00 in0.0 mm
03:41 AM 25.9°F-3.4°C 9.8°F-12.3°C 50% 9.3 mph SSW15.0 kmh SSW 14.4 mph23.2 kmh 32.01 in1084.0 mb 0.00 in0.0 mm 0.00 in/hr0.0 mm/hr 0.00 in0.0 mm
03:36 AM 25.7°F-3.5°C 9.6°F-12.4°C 50% 6.3 mph SSW10.1 kmh SSW 15.1 mph24.3 kmh 32.01 in1084.0 mb 0.00 in0.0 mm 0.00 in/hr0.0 mm/hr 0.00 in0.0 mm
03:31 AM 25.5°F-3.6°C 9.5°F-12.5°C 50% 8.4 mph SSW13.5 kmh SSW 15.1 mph24.3 kmh 32.01 in1084.0 mb 0.00 in0.0 mm 0.00 in/hr0.0 mm/hr 0.00 in0.0 mm
03:25 AM 25.3°F-3.7°C 9.3°F-12.6°C 50% 9.4 mph SSW15.1 kmh SSW 17.6 mph28.3 kmh 32.01 in1084.0 mb 0.00 in0.0 mm 0.00 in/hr0.0 mm/hr 0.00 in0.0 mm
03:20 AM 25.2°F-3.8°C 9.2°F-12.7°C 50% 9.2 mph S14.8 kmh S 17.6 mph28.3 kmh 32.01 in1084.0 mb 0.00 in0.0 mm 0.00 in/hr0.0 mm/hr 0.00 in0.0 mm
03:15 AM 25.0°F-3.9°C 9.0°F-12.8°C 50% 6.9 mph SSW11.1 kmh SSW 13.9 mph22.4 kmh 32.01 in1084.0 mb 0.00 in0.0 mm 0.00 in/hr0.0 mm/hr 0.00 in0.0 mm
03:10 AM 24.6°F-4.1°C 8.7°F-12.9°C 50% 6.7 mph SSW10.8 kmh SSW 19.4 mph31.2 kmh 32.01 in1084.0 mb 0.00 in0.0 mm 0.00 in/hr0.0 mm/hr 0.00 in0.0 mm
03:05 AM 24.4°F-4.2°C 8.5°F-13.1°C 50% 7.0 mph S11.3 kmh S 19.4 mph31.2 kmh 32.01 in1084.0 mb 0.00 in0.0 mm 0.00 in/hr0.0 mm/hr 0.00 in0.0 mm
03:00 AM 24.4°F-4.2°C 8.5°F-13.1°C 50% 7.9 mph SSW12.7 kmh SSW 14.4 mph23.2 kmh 32.01 in1084.0 mb 0.00 in0.0 mm 0.00 in/hr0.0 mm/hr 0.00 in0.0 mm
02:55 AM 24.1°F-4.4°C 8.2°F-13.2°C 50% 7.4 mph SSW11.9 kmh SSW 18.1 mph29.1 kmh 32.01 in1084.0 mb 0.00 in0.0 mm 0.00 in/hr0.0 mm/hr 0.00 in0.0 mm
02:50 AM 24.1°F-4.4°C 8.2°F-13.2°C 50% 9.1 mph SSW14.6 kmh SSW 18.1 mph29.1 kmh 32.01 in1084.0 mb 0.00 in0.0 mm 0.00 in/hr0.0 mm/hr 0.00 in0.0 mm
02:45 AM 23.9°F-4.5°C 8.1°F-13.3°C 50% 8.9 mph SSW14.3 kmh SSW 17.6 mph28.3 kmh 32.01 in1084.0 mb 0.00 in0.0 mm 0.00 in/hr0.0 mm/hr 0.00 in0.0 mm
02:40 AM 23.7°F-4.6°C 7.9°F-13.4°C 50% 7.4 mph S11.9 kmh S 17.6 mph28.3 kmh 32.01 in1084.0 mb 0.00 in0.0 mm 0.00 in/hr0.0 mm/hr 0.00 in0.0 mm
02:35 AM 23.5°F-4.7°C 7.7°F-13.5°C 50% 6.1 mph SSW9.8 kmh SSW 15.1 mph24.3 kmh 32.01 in1084.0 mb 0.00 in0.0 mm 0.00 in/hr0.0 mm/hr 0.00 in0.0 mm
02:30 AM 23.2°F-4.9°C 7.4°F-13.7°C 51% 9.3 mph SSW15.0 kmh SSW 15.1 mph24.3 kmh 32.01 in1084.0 mb 0.00 in0.0 mm 0.00 in/hr0.0 mm/hr 0.00 in0.0 mm
02:25 AM 23.2°F-4.9°C 7.4°F-13.7°C 51% 8.1 mph SSW13.0 kmh SSW 15.1 mph24.3 kmh 32.01 in1084.0 mb 0.00 in0.0 mm 0.00 in/hr0.0 mm/hr 0.00 in0.0 mm
02:20 AM 23.0°F-5.0°C 7.8°F-13.4°C 52% 8.1 mph SSW13.0 kmh SSW 15.1 mph24.3 kmh 32.01 in1084.0 mb 0.00 in0.0 mm 0.00 in/hr0.0 mm/hr 0.00 in0.0 mm
02:15 AM 22.8°F-5.1°C 7.6°F-13.6°C 52% 5.5 mph SSW8.9 kmh SSW 20.6 mph33.2 kmh 32.01 in1084.0 mb 0.00 in0.0 mm 0.00 in/hr0.0 mm/hr 0.00 in0.0 mm
02:10 AM 22.8°F-5.1°C 7.6°F-13.6°C 52% 8.1 mph SSW13.0 kmh SSW 20.6 mph33.2 kmh 32.01 in1084.0 mb 0.00 in0.0 mm 0.00 in/hr0.0 mm/hr 0.00 in0.0 mm
02:05 AM 22.5°F-5.3°C 7.3°F-13.7°C 52% 7.7 mph SSW12.4 kmh SSW 16.4 mph26.4 kmh 32.01 in1084.0 mb 0.00 in0.0 mm 0.00 in/hr0.0 mm/hr 0.00 in0.0 mm
01:59 AM 22.3°F-5.4°C 7.2°F-13.8°C 52% 8.6 mph SW13.8 kmh SW 14.4 mph23.2 kmh 32.01 in1084.0 mb 0.00 in0.0 mm 0.00 in/hr0.0 mm/hr 0.00 in0.0 mm
01:54 AM 22.3°F-5.4°C 7.2°F-13.8°C 52% 6.8 mph S10.9 kmh S 14.4 mph23.2 kmh 32.01 in1084.0 mb 0.00 in0.0 mm 0.00 in/hr0.0 mm/hr 0.00 in0.0 mm
01:49 AM 22.1°F-5.5°C 7.0°F-13.9°C 52% 8.2 mph S13.2 kmh S 14.4 mph23.2 kmh 32.01 in1084.0 mb 0.00 in0.0 mm 0.00 in/hr0.0 mm/hr 0.00 in0.0 mm
01:44 AM 21.9°F-5.6°C 6.8°F-14.0°C 52% 6.1 mph SSW9.8 kmh SSW 14.4 mph23.2 kmh 32.01 in1084.0 mb 0.00 in0.0 mm 0.00 in/hr0.0 mm/hr 0.00 in0.0 mm
01:38 AM 21.7°F-5.7°C 6.6°F-14.1°C 52% 8.0 mph SSW12.9 kmh SSW 14.4 mph23.2 kmh 32.01 in1084.0 mb 0.00 in0.0 mm 0.00 in/hr0.0 mm/hr 0.00 in0.0 mm
01:33 AM 21.6°F-5.8°C 6.5°F-14.2°C 52% 6.4 mph SSW10.3 kmh SSW 15.1 mph24.3 kmh 32.01 in1084.0 mb 0.00 in0.0 mm 0.00 in/hr0.0 mm/hr 0.00 in0.0 mm
01:28 AM 21.6°F-5.8°C 6.5°F-14.2°C 52% 8.3 mph SSW13.4 kmh SSW 15.1 mph24.3 kmh 32.01 in1084.0 mb 0.00 in0.0 mm 0.00 in/hr0.0 mm/hr 0.00 in0.0 mm
01:23 AM 21.6°F-5.8°C 6.5°F-14.2°C 52% 8.1 mph SSW13.0 kmh SSW 16.4 mph26.4 kmh 32.01 in1084.0 mb 0.00 in0.0 mm 0.00 in/hr0.0 mm/hr 0.00 in0.0 mm
01:17 AM 21.6°F-5.8°C 6.6°F-14.1°C 52% 6.9 mph SSW11.1 kmh SSW 15.1 mph24.3 kmh 32.01 in1084.0 mb 0.00 in0.0 mm 0.00 in/hr0.0 mm/hr 0.00 in0.0 mm
01:12 AM 21.4°F-5.9°C 6.4°F-14.2°C 52% 9.8 mph SSW15.8 kmh SSW 15.1 mph24.3 kmh 32.01 in1084.0 mb 0.00 in0.0 mm 0.00 in/hr0.0 mm/hr 0.00 in0.0 mm
01:07 AM 21.6°F-5.8°C 6.6°F-14.1°C 52% 8.0 mph S12.9 kmh S 13.2 mph21.2 kmh 32.01 in1084.0 mb 0.00 in0.0 mm 0.00 in/hr0.0 mm/hr 0.00 in0.0 mm
01:02 AM 21.6°F-5.8°C 6.6°F-14.1°C 52% 7.2 mph SSW11.6 kmh SSW 12.0 mph19.3 kmh 32.01 in1084.0 mb 0.00 in0.0 mm 0.00 in/hr0.0 mm/hr 0.00 in0.0 mm
12:57 AM 21.6°F-5.8°C 6.6°F-14.1°C 52% 7.6 mph SSW12.2 kmh SSW 13.2 mph21.2 kmh 32.01 in1084.0 mb 0.00 in0.0 mm 0.00 in/hr0.0 mm/hr 0.00 in0.0 mm
12:52 AM 21.7°F-5.7°C 6.7°F-14.1°C 52% 7.4 mph SSW11.9 kmh SSW 18.1 mph29.1 kmh 32.01 in1084.0 mb 0.00 in0.0 mm 0.00 in/hr0.0 mm/hr 0.00 in0.0 mm
12:47 AM 21.7°F-5.7°C 6.7°F-14.1°C 52% 7.9 mph SW12.7 kmh SW 18.1 mph29.1 kmh 32.01 in1084.0 mb 0.00 in0.0 mm 0.00 in/hr0.0 mm/hr 0.00 in0.0 mm
12:42 AM 21.9°F-5.6°C 6.9°F-13.9°C 52% 9.1 mph SW14.6 kmh SW 15.1 mph24.3 kmh 32.01 in1084.0 mb 0.00 in0.0 mm 0.00 in/hr0.0 mm/hr 0.00 in0.0 mm
12:37 AM 21.9°F-5.6°C 6.9°F-13.9°C 52% 6.2 mph SSW10.0 kmh SSW 15.1 mph24.3 kmh 32.01 in1084.0 mb 0.00 in0.0 mm 0.00 in/hr0.0 mm/hr 0.00 in0.0 mm
12:32 AM 21.7°F-5.7°C 6.7°F-14.1°C 52% 6.8 mph SSW10.9 kmh SSW 15.7 mph25.3 kmh 32.01 in1084.0 mb 0.00 in0.0 mm 0.00 in/hr0.0 mm/hr 0.00 in0.0 mm
12:27 AM 21.7°F-5.7°C 6.7°F-14.1°C 52% 7.2 mph S11.6 kmh S 15.7 mph25.3 kmh 32.01 in1084.0 mb 0.00 in0.0 mm 0.00 in/hr0.0 mm/hr 0.00 in0.0 mm
12:22 AM 21.7°F-5.7°C 6.7°F-14.1°C 52% 10.6 mph SSW17.1 kmh SSW 21.2 mph34.1 kmh 32.01 in1084.0 mb 0.00 in0.0 mm 0.00 in/hr0.0 mm/hr 0.00 in0.0 mm
12:17 AM 21.7°F-5.7°C 6.7°F-14.1°C 52% 9.4 mph SSW15.1 kmh SSW 21.2 mph34.1 kmh 32.01 in1084.0 mb 0.00 in0.0 mm 0.00 in/hr0.0 mm/hr 0.00 in0.0 mm
12:12 AM 21.6°F-5.8°C 6.6°F-14.1°C 52% 8.2 mph SSW13.2 kmh SSW 13.9 mph22.4 kmh 32.01 in1084.0 mb 0.00 in0.0 mm 0.00 in/hr0.0 mm/hr 0.00 in0.0 mm
12:07 AM 21.4°F-5.9°C 6.4°F-14.2°C 52% 7.0 mph S11.3 kmh S 19.4 mph31.2 kmh 32.01 in1084.0 mb 0.00 in0.0 mm 0.00 in/hr0.0 mm/hr 0.00 in0.0 mm
12:02 AM 21.2°F-6.0°C 6.7°F-14.1°C 53% 10.2 mph SSW16.4 kmh SSW 19.4 mph31.2 kmh 32.01 in1084.0 mb 0.00 in0.0 mm 0.00 in/hr0.0 mm/hr 0.00 in0.0 mm